Timeline UpdatesTrip UpdatesNews PostsPvt PostsTravel TipsAdmin PostsConv PostsFollowed PostsChat RequestsBlog PostsPNR Posts

Disclaimer
Search
 
 
Tue Sep 2, 2014 10:01:33 ISTHomeTrainsΣChainsAtlasPNRForumGalleryNewsFAQTripsMembersLoginFeedback
No Recent News for this Train
Other Trains in the News **new
Latest...
Cancelled on 3/8/14
Fri Aug 01, 2014 (08:09PM)
⇐ Return Journey: Train# 58117

58118/Gondia-Jharsuguda Passenger (UnReserved)

OLD Time-Table. Click here to UPDATE TT
Sep 11 2013 (10:54PM)
Change Departure Station:
Change Arrival Station:
Post a Train Travel TipPost a Train Travel Tip **new
Post a Comment/Question/Picture/VideoPost a Comment/Question/Picture/Video
Pantry/Catering
???
RSA - Rake Sharing
Rake/Coach Composition
Loco
BIA WAM-4
News    PNR    Forum    Time-Table    Availability    Fare Chart    Map    Arr/Dep History    Trips    Gallery    ΣChains    X/O    Timeline    
Travel Time: 0h 28m    2 halts    Distance: 30 km    Avg Speed: 64 km/hr
Type: Passenger
Zone: SER/South Eastern
Departs @ 05:00
Platform# ???
SMTWTFS
Gondia Junction/G 
Arrives @ 05:28
Platform# ???
SMTWTFS
Dhanoli/DNL 

2 halts. 2 intermediate Stations between Gondia Junction and Dhanoli

Show ALL intermediate Stations  

#CodeStation NameX/OArrivesAvgDepartsAvgHaltPFDay#KmSpeedElevZoneAddress
1Gondia Junction (7)»  -05:00---10.071316mSECRGondia 441601, Maharashtra
2GDMGudma (2)  05:10-05:11-1m--111.973323mSECRGondia, Maharashtra
3AGNAmgaon (2)X  05:20-05:22-2m--122.872317mSECRGondia, Maharashtra
4DNL•Dhanoli (2)•X  05:28-05:29-1m--130.164310mSECRAmgaon, Maharashtra
5SKSSalekasa (2)X  05:36-05:38-2m--137.553312mSECRRajnandgaon, Chhattisgarh
6DKSDarekasa (2)  05:51-05:52-1m--149.166381mSECRRajnandgaon, Chhattisgarh
7BTLBortalao (2)  05:59-06:00-1m--156.844409mSECRRajnandgaon, Chhattisgarh
8PJBPaniajob (2)  06:12-06:13-1m--165.638398mSECRRajnandgaon, Chhattisgarh
9DGGDongargarh (2)  06:25-06:35-10m--173.365353mSECRDongargarh, Chhattisgarh
10JTRJatkanhar  06:41-06:42-1m--179.840330mSECRRajnandgaon, Chhattisgarh
11MUAMusraX  06:52-06:54-2m--186.459325mSECRRajnandgaon, Chhattisgarh
12BAKLBakal  07:02-07:03-1m--194.353315mSECRRajnandgaon, Chhattisgarh
13RJNRaj Nandgaon (3)X  07:15-07:20-5m--1104.859313mSECRRajnandgaon, Chhattisgarh
14PMSParmalkasa  07:28-07:29-1m--1112.770300mSECRRajnandgaon, Chhattisgarh
15MUPMurhipar  07:35-07:37-2m--1119.864319mSECRRajnandgaon, Chhattisgarh
16RSMRasmaraXO  07:44-07:45-1m--1127.219292mSECRRasmada, Chhattisgarh
17DURGDurg Junction (6)  08:10-08:15-5m--1135.339299mSECRPh: 91-788-2322059, Chhattisgarh
18BQRBhilai Nagar (2)X  08:22-08:24-2m--1139.853298mSECRBhilai, Chhattisgarh
19BPHBBhilai Power House (3)X  08:29-08:31-2m--1144.256312mSECRBhilai, Chhattisgarh
20BIABhilai (2)X  08:36-08:38-2m--1148.841309mSECRBhilai, Chhattisgarh
21KMIKumhari (2)X  08:54-08:56-2m--1159.862287mSECRKumhari, Chhattisgarh
22SZBSarona Cabin (2)  09:02-09:04-2m--1166.048282mSECRRaipur, Chhattisgarh
23SRWNSaraswatinagar (2)X  09:09-09:11-2m--1169.915291mSECRRaipur, Chhattisgarh
24RRaipur Junction (6)  09:20-09:27-7m--1172.231297mSECRRaipur, Chhattisgarh
25WRCWRS Colony PH  09:32-09:33-1m--1174.830286mSECRRaipur, Chhattisgarh
26URKUrkuraX  09:39-09:41-2m--1177.886275mSECRRaipur, Chhattisgarh
27MDHMandhar  09:47-09:49-2m--1186.464281mSECRDonde Kalan, Chhattisgarh
28SLHSiliariXO  09:58-10:00-2m--1195.951280mSECRBanjari Rd, Chhattisgarh
29TLDTilda (3)  10:17-10:19-2m--1210.449291mSECRBanjari Rd, Chhattisgarh
30HNHathbandhX  10:32-10:34-2m--1221.184283mSECRRaipur, Chhattisgarh
31BYTBhatapara (4)XO  10:45-10:47-2m--1236.480270mSECRBanjari Road, Chhattisgarh
32NPINipaniaXO  10:58-11:00-2m--1251.238259mSECRNational Highway 200, Chhattisgarh
33DGSDagoriO  11:13-11:15-2m--1259.477254mSECRCollege Road, Chhattisgarh
34BYLBelhaXO  11:21-11:23-2m--1267.170269mSECRCollege Road, Chhattisgarh
35CHBTChakarbhatha  11:28-11:30-2m--1272.937285mSECRBilaspur, Chhattisgarh
36DPHDadhapara (3)X  11:35-11:40-5m--1276.04272mSECRBilaspur, Chhattisgarh
37BSPBilaspur Junction (8)  13:15-13:45-30m21282.643271mSECRBilaspur, Chhattisgarh
38GTWGatora  13:54-13:57-3m--1289.157268mSECRBilaspur, Chhattisgarh
39JRMGJairamnagar  14:05-14:07-2m--1296.867272mSECRNational Highway 200, Chhattisgarh
40KTSHKotmi Sonar Halt  14:13-14:15-2m--1303.564266mSECRKotmisunar, Chhattisgarh
41AKTAkaltara (4)X  14:21-14:23-2m--1309.966284mSECRDist. Janjgir Champa, Chhattisgarh
42KPNAKapan (1)X  14:30-14:32-2m11317.633263mSECRNational Highway 200, Chhattisgarh
43NIANaila  14:45-14:50-5m--1324.843273mSECRJanjgir, Chhattisgarh
44CPHChampa Junction (3)X  15:05-15:20-15m--1335.767264mSECRNational Highway 200 (07819-245767), Chhattisgarh
45SGRDSaragaon RoadX  15:28-15:30-2m--1344.649254mSECRNational Highway 200, Chhattisgarh
46BUABaradwar  15:38-15:40-2m--1351.271256mSECRJanjgir-Champa, Chhattisgarh
47JDDAJethaXO  15:46-15:48-2m--1358.317244mSECRNational Highway 200, Chhattisgarh
48SKTSakti (4)  16:15-16:30-15m--1366.076237mSECRJanjgir-Champa, Chhattisgarh
49JDIJharradihX  16:38-16:40-2m--1376.217247mSECRRaigarh, Chhattisgarh
50KHSKharsiaX  16:58-17:03-5m--1381.473259mSECRNational Highway 200, Chhattisgarh
51ROBRobertson  17:10-17:12-2m--1389.968239mSECRRaigarh, Chhattisgarh
52BEFBhupdeopurX  17:20-17:22-2m--1399.079243mSECRRaigarh, Chhattisgarh
53KDTRKirodimalnagar (5)  17:29-17:31-2m--1408.231240mSECRRaigarh, Chhattisgarh
54RIGRaigarh (3)  17:45-17:55-10m--1415.473220mSECRRaigarh, Chhattisgarh
55KRLKotarlia  18:03-18:05-2m--1425.1102229mSECRRaigarh, Chhattisgarh
56JMGJamgaX  18:10-18:12-2m--1433.645233mSECRJamga Station, Chhattisgarh
57DAODaghora  18:28-18:30-2m--1445.656269mSECRRaigarh, Chhattisgarh
58HGRHimgir  18:38-18:40-2m--1453.081275mSECRNational Highway 200, Chhattisgarh
59BPHBelpaharO  18:50-18:52-2m--1466.530235mSECRBelpahar, Odisha
60BRJNBrajrajnagarO  19:10-19:15-5m--1475.420212mSECRBrajrajnagar, Odisha
61IBIb  19:23-19:25-2m--1478.011207mSECRJharsuguda, Odisha
62JSGJharsuguda Junction (5)  20:15----1487.0-236mSERJharsuguda, Odisha
Scroll to Top
Scroll to Bottom